Brandon, Iowa
Current Conditions -  °F | °C
As of 5:15 PM on Wednesday 22 Oct 2014 (Local Time) from KIIB Reporting Station
Clear Clear  
Wind Chill: 57°   Ceiling: Unl
Heat Index: 57°   Visibility: 10mi
Dew Point: 39°   Wind: 15mph
Humidity: 51%   Direction: 140°SE
Pressure: 30.17"   Gusts: 18mph
Location:  42.31°N, 92°W
Report Text: KIIB 222215Z AUTO 14013G16KT 10SM CLR 14/04 A3017 RMK AO2
Loading
Personal Weather Stations






























Interactive Weather Map
Tropical Storm Tracking
New forecast layout! Learn more

10-Day Weather Forecast

Advertisements
Track Severe Weather on mobile